sensor_id;sensor_type;location;lat;lon;timestamp;pressure;altitude;pressure_sealevel;temperature;humidity
80542;BME280;69870;51.460;8.842;2023-12-07T00:00:12;98663.25;;;2.82;85.09
80542;BME280;69870;51.460;8.842;2023-12-07T00:02:40;98673.97;;;2.82;84.31
80542;BME280;69870;51.460;8.842;2023-12-07T00:05:07;98678.78;;;2.85;84.54
80542;BME280;69870;51.460;8.842;2023-12-07T00:07:34;98668.03;;;2.85;84.48
80542;BME280;69870;51.460;8.842;2023-12-07T00:10:01;98667.22;;;2.85;84.91
80542;BME280;69870;51.460;8.842;2023-12-07T00:12:28;98668.03;;;2.85;85.29
80542;BME280;69870;51.460;8.842;2023-12-07T00:14:54;98670.72;;;2.85;84.62
80542;BME280;69870;51.460;8.842;2023-12-07T00:17:21;98669.63;;;2.86;84.36
80542;BME280;69870;51.460;8.842;2023-12-07T00:19:50;98675.00;;;2.86;84.75
80542;BME280;69870;51.460;8.842;2023-12-07T00:22:19;98675.00;;;2.86;84.49
80542;BME280;69870;51.460;8.842;2023-12-07T00:24:45;98676.59;;;2.87;85.34
80542;BME280;69870;51.460;8.842;2023-12-07T00:27:12;98675.00;;;2.86;85.05
80542;BME280;69870;51.460;8.842;2023-12-07T00:29:38;98679.84;;;2.84;85.27
80542;BME280;69870;51.460;8.842;2023-12-07T00:32:05;98676.09;;;2.85;84.53
80542;BME280;69870;51.460;8.842;2023-12-07T00:34:32;98689.22;;;2.87;84.75
80542;BME280;69870;51.460;8.842;2023-12-07T00:37:00;98689.22;;;2.87;84.84
80542;BME280;69870;51.460;8.842;2023-12-07T00:39:28;98684.63;;;2.87;84.90
80542;BME280;69870;51.460;8.842;2023-12-07T00:41:55;98688.94;;;2.88;85.20
80542;BME280;69870;51.460;8.842;2023-12-07T00:44:21;98699.38;;;2.90;84.89
80542;BME280;69870;51.460;8.842;2023-12-07T00:46:48;98690.25;;;2.91;85.19
80542;BME280;69870;51.460;8.842;2023-12-07T00:49:14;98694.50;;;2.92;84.77
80542;BME280;69870;51.460;8.842;2023-12-07T00:51:41;98699.88;;;2.92;85.48
80542;BME280;69870;51.460;8.842;2023-12-07T00:54:09;98702.56;;;2.92;84.23
80542;BME280;69870;51.460;8.842;2023-12-07T00:56:36;98701.47;;;2.93;84.84
80542;BME280;69870;51.460;8.842;2023-12-07T00:59:03;98702.25;;;2.93;85.25
80542;BME280;69870;51.460;8.842;2023-12-07T01:01:29;98698.00;;;2.92;85.42
80542;BME280;69870;51.460;8.842;2023-12-07T01:03:56;98699.56;;;2.93;84.36
80542;BME280;69870;51.460;8.842;2023-12-07T01:06:22;98711.91;;;2.94;85.34
80542;BME280;69870;51.460;8.842;2023-12-07T01:08:49;98718.91;;;2.95;85.38
80542;BME280;69870;51.460;8.842;2023-12-07T01:11:17;98713.53;;;2.95;85.19
80542;BME280;69870;51.460;8.842;2023-12-07T01:13:44;98724.53;;;2.94;84.86
80542;BME280;69870;51.460;8.842;2023-12-07T01:16:11;98717.28;;;2.94;85.23
80542;BME280;69870;51.460;8.842;2023-12-07T01:18:37;98718.59;;;2.97;84.97
80542;BME280;69870;51.460;8.842;2023-12-07T01:21:04;98726.34;;;2.98;84.85
80542;BME280;69870;51.460;8.842;2023-12-07T01:23:31;98726.66;;;2.97;84.70
80542;BME280;69870;51.460;8.842;2023-12-07T01:25:58;98720.16;;;2.98;84.30
80542;BME280;69870;51.460;8.842;2023-12-07T01:28:29;98725.53;;;2.98;85.16
80542;BME280;69870;51.460;8.842;2023-12-07T01:30:56;98736.28;;;2.98;85.07
80542;BME280;69870;51.460;8.842;2023-12-07T01:33:22;98732.53;;;2.99;84.63
80542;BME280;69870;51.460;8.842;2023-12-07T01:35:49;98722.59;;;3.00;84.50
80542;BME280;69870;51.460;8.842;2023-12-07T01:38:16;98727.97;;;3.00;85.40
80542;BME280;69870;51.460;8.842;2023-12-07T01:40:42;98722.59;;;3.00;84.88
80542;BME280;69870;51.460;8.842;2023-12-07T01:43:09;98731.16;;;3.02;84.90
80542;BME280;69870;51.460;8.842;2023-12-07T01:45:37;98730.84;;;3.03;84.61
80542;BME280;69870;51.460;8.842;2023-12-07T01:48:04;98734.34;;;3.04;84.45
80542;BME280;69870;51.460;8.842;2023-12-07T01:50:31;98733.75;;;3.07;84.64
80542;BME280;69870;51.460;8.842;2023-12-07T01:53:01;98723.28;;;3.05;85.23
80542;BME280;69870;51.460;8.842;2023-12-07T01:55:29;98735.34;;;3.08;84.44
80542;BME280;69870;51.460;8.842;2023-12-07T01:57:57;98740.72;;;3.08;84.78
80542;BME280;69870;51.460;8.842;2023-12-07T02:00:24;98736.94;;;3.09;84.47
80542;BME280;69870;51.460;8.842;2023-12-07T02:02:53;98740.72;;;3.08;84.52
80542;BME280;69870;51.460;8.842;2023-12-07T02:05:20;98739.91;;;3.07;84.73
80542;BME280;69870;51.460;8.842;2023-12-07T02:07:48;98742.09;;;3.05;85.29
80542;BME280;69870;51.460;8.842;2023-12-07T02:10:14;98739.69;;;3.04;85.25
80542;BME280;69870;51.460;8.842;2023-12-07T02:12:41;98740.50;;;3.04;84.24
80542;BME280;69870;51.460;8.842;2023-12-07T02:15:08;98739.69;;;3.04;84.90
80542;BME280;69870;51.460;8.842;2023-12-07T02:17:43;98740.78;;;3.03;84.23
80542;BME280;69870;51.460;8.842;2023-12-07T02:20:19;98747.25;;;3.02;84.94
80542;BME280;69870;51.460;8.842;2023-12-07T02:22:51;98751.53;;;3.03;84.69
80542;BME280;69870;51.460;8.842;2023-12-07T02:25:24;98754.72;;;3.05;84.72
80542;BME280;69870;51.460;8.842;2023-12-07T02:27:52;98756.63;;;3.04;85.31
80542;BME280;69870;51.460;8.842;2023-12-07T02:30:18;98760.09;;;3.05;84.88
80542;BME280;69870;51.460;8.842;2023-12-07T02:32:45;98762.00;;;3.04;85.32
80542;BME280;69870;51.460;8.842;2023-12-07T02:35:12;98758.19;;;3.05;84.64
80542;BME280;69870;51.460;8.842;2023-12-07T02:37:42;98764.38;;;3.06;85.32
80542;BME280;69870;51.460;8.842;2023-12-07T02:40:10;98768.69;;;3.07;84.52
80542;BME280;69870;51.460;8.842;2023-12-07T02:42:40;98766.00;;;3.07;85.23
80542;BME280;69870;51.460;8.842;2023-12-07T02:45:10;98768.69;;;3.07;84.95
80542;BME280;69870;51.460;8.842;2023-12-07T02:47:38;98766.75;;;3.07;84.63
80542;BME280;69870;51.460;8.842;2023-12-07T02:50:06;98774.53;;;3.09;84.59
80542;BME280;69870;51.460;8.842;2023-12-07T02:52:34;98766.50;;;3.09;84.77
80542;BME280;69870;51.460;8.842;2023-12-07T02:55:01;98774.53;;;3.09;84.47
80542;BME280;69870;51.460;8.842;2023-12-07T02:57:28;98767.56;;;3.08;85.24
80542;BME280;69870;51.460;8.842;2023-12-07T02:59:55;98773.75;;;3.08;85.30
80542;BME280;69870;51.460;8.842;2023-12-07T03:02:23;98767.25;;;3.09;84.62
80542;BME280;69870;51.460;8.842;2023-12-07T03:04:49;98763.81;;;3.09;85.34
80542;BME280;69870;51.460;8.842;2023-12-07T03:07:17;98771.06;;;3.08;85.00
80542;BME280;69870;51.460;8.842;2023-12-07T03:09:44;98778.31;;;3.08;85.28
80542;BME280;69870;51.460;8.842;2023-12-07T03:12:11;98775.13;;;3.06;84.62
80542;BME280;69870;51.460;8.842;2023-12-07T03:14:37;98779.69;;;3.05;84.42
80542;BME280;69870;51.460;8.842;2023-12-07T03:17:04;98782.38;;;3.05;85.05
80542;BME280;69870;51.460;8.842;2023-12-07T03:19:32;98778.13;;;3.04;85.23
80542;BME280;69870;51.460;8.842;2023-12-07T03:21:58;98785.06;;;3.05;84.60
80542;BME280;69870;51.460;8.842;2023-12-07T03:24:25;98788.84;;;3.04;84.58
80542;BME280;69870;51.460;8.842;2023-12-07T03:26:52;98793.72;;;3.02;84.94
80542;BME280;69870;51.460;8.842;2023-12-07T03:29:19;98797.19;;;3.03;85.03
80542;BME280;69870;51.460;8.842;2023-12-07T03:31:45;98799.88;;;3.03;85.31
80542;BME280;69870;51.460;8.842;2023-12-07T03:34:12;98797.19;;;3.03;85.11
80542;BME280;69870;51.460;8.842;2023-12-07T03:36:42;98793.72;;;3.02;84.93
80542;BME280;69870;51.460;8.842;2023-12-07T03:39:09;98800.97;;;3.02;84.57
80542;BME280;69870;51.460;8.842;2023-12-07T03:41:36;98795.09;;;3.00;85.48
80542;BME280;69870;51.460;8.842;2023-12-07T03:44:03;98806.63;;;3.00;85.00
80542;BME280;69870;51.460;8.842;2023-12-07T03:46:29;98804.25;;;2.98;84.60
80542;BME280;69870;51.460;8.842;2023-12-07T03:48:56;98799.97;;;2.97;84.66
80542;BME280;69870;51.460;8.842;2023-12-07T03:51:23;98803.75;;;2.96;84.72
80542;BME280;69870;51.460;8.842;2023-12-07T03:53:51;98803.75;;;2.96;85.06
80542;BME280;69870;51.460;8.842;2023-12-07T03:56:23;98809.09;;;2.96;84.46
80542;BME280;69870;51.460;8.842;2023-12-07T03:58:50;98807.22;;;2.97;85.34
80542;BME280;69870;51.460;8.842;2023-12-07T04:01:17;98806.44;;;2.96;84.44
80542;BME280;69870;51.460;8.842;2023-12-07T04:03:43;98808.91;;;2.93;84.87
80542;BME280;69870;51.460;8.842;2023-12-07T04:06:11;98810.78;;;2.92;84.41
80542;BME280;69870;51.460;8.842;2023-12-07T04:08:38;98810.78;;;2.92;84.42
80542;BME280;69870;51.460;8.842;2023-12-07T04:11:06;98813.47;;;2.92;84.20
80542;BME280;69870;51.460;8.842;2023-12-07T04:13:33;98813.78;;;2.91;84.18
80542;BME280;69870;51.460;8.842;2023-12-07T04:16:00;98805.72;;;2.91;84.39
80542;BME280;69870;51.460;8.842;2023-12-07T04:18:28;98807.59;;;2.90;84.97
80542;BME280;69870;51.460;8.842;2023-12-07T04:20:55;98805.72;;;2.91;84.47
80542;BME280;69870;51.460;8.842;2023-12-07T04:23:21;98810.28;;;2.90;85.14
80542;BME280;69870;51.460;8.842;2023-12-07T04:25:48;98806.78;;;2.90;84.23
80542;BME280;69870;51.460;8.842;2023-12-07T04:28:16;98801.72;;;2.88;85.30
80542;BME280;69870;51.460;8.842;2023-12-07T04:30:43;98805.47;;;2.87;84.88
80542;BME280;69870;51.460;8.842;2023-12-07T04:33:10;98797.44;;;2.87;84.60
80542;BME280;69870;51.460;8.842;2023-12-07T04:35:36;98802.81;;;2.87;84.41
80542;BME280;69870;51.460;8.842;2023-12-07T04:38:03;98803.91;;;2.86;84.41
80542;BME280;69870;51.460;8.842;2023-12-07T04:40:30;98804.69;;;2.87;84.65
80542;BME280;69870;51.460;8.842;2023-12-07T04:42:56;98815.41;;;2.87;84.24
80542;BME280;69870;51.460;8.842;2023-12-07T04:45:24;98810.34;;;2.85;85.06
80542;BME280;69870;51.460;8.842;2023-12-07T04:47:51;98807.97;;;2.84;84.33
80542;BME280;69870;51.460;8.842;2023-12-07T04:50:18;98804.47;;;2.83;84.76
80542;BME280;69870;51.460;8.842;2023-12-07T04:52:45;98802.88;;;2.82;84.88
80542;BME280;69870;51.460;8.842;2023-12-07T04:55:11;98805.56;;;2.82;84.87
80542;BME280;69870;51.460;8.842;2023-12-07T04:57:38;98799.09;;;2.83;85.09
80542;BME280;69870;51.460;8.842;2023-12-07T05:00:05;98803.66;;;2.83;84.43
80542;BME280;69870;51.460;8.842;2023-12-07T05:02:36;98809.03;;;2.83;84.38
80542;BME280;69870;51.460;8.842;2023-12-07T05:05:03;98811.72;;;2.83;84.25
80542;BME280;69870;51.460;8.842;2023-12-07T05:07:30;98811.72;;;2.83;84.70
80542;BME280;69870;51.460;8.842;2023-12-07T05:09:57;98814.72;;;2.81;84.44
80542;BME280;69870;51.460;8.842;2023-12-07T05:12:23;98817.41;;;2.81;84.88
80542;BME280;69870;51.460;8.842;2023-12-07T05:14:50;98817.41;;;2.81;85.05
80542;BME280;69870;51.460;8.842;2023-12-07T05:17:17;98818.47;;;2.80;84.47
80542;BME280;69870;51.460;8.842;2023-12-07T05:19:45;98818.47;;;2.80;84.24
80542;BME280;69870;51.460;8.842;2023-12-07T05:22:12;98815.00;;;2.80;84.52
80542;BME280;69870;51.460;8.842;2023-12-07T05:24:40;98817.69;;;2.80;84.49
80542;BME280;69870;51.460;8.842;2023-12-07T05:27:06;98814.22;;;2.79;84.43
80542;BME280;69870;51.460;8.842;2023-12-07T05:29:33;98814.47;;;2.78;85.08
80542;BME280;69870;51.460;8.842;2023-12-07T05:32:00;98813.19;;;2.75;85.06
80542;BME280;69870;51.460;8.842;2023-12-07T05:34:26;98811.59;;;2.74;84.29
80542;BME280;69870;51.460;8.842;2023-12-07T05:36:54;98812.97;;;2.72;85.16
80542;BME280;69870;51.460;8.842;2023-12-07T05:39:21;98814.84;;;2.71;84.37
80542;BME280;69870;51.460;8.842;2023-12-07T05:41:47;98824.81;;;2.71;84.50
80542;BME280;69870;51.460;8.842;2023-12-07T05:44:14;98825.06;;;2.69;84.76
80542;BME280;69870;51.460;8.842;2023-12-07T05:46:46;98826.44;;;2.67;84.81
80542;BME280;69870;51.460;8.842;2023-12-07T05:49:13;98820.31;;;2.66;85.08
80542;BME280;69870;51.460;8.842;2023-12-07T05:51:40;98824.56;;;2.67;85.23
80542;BME280;69870;51.460;8.842;2023-12-07T05:54:08;98831.81;;;2.67;84.78
80542;BME280;69870;51.460;8.842;2023-12-07T05:56:34;98831.03;;;2.66;85.24
80542;BME280;69870;51.460;8.842;2023-12-07T05:59:01;98833.22;;;2.64;84.75
80542;BME280;69870;51.460;8.842;2023-12-07T06:01:27;98835.09;;;2.64;85.26
80542;BME280;69870;51.460;8.842;2023-12-07T06:03:54;98839.97;;;2.62;84.84
80542;BME280;69870;51.460;8.842;2023-12-07T06:06:21;98841.84;;;2.61;84.64
80542;BME280;69870;51.460;8.842;2023-12-07T06:08:47;98842.13;;;2.60;85.56
80542;BME280;69870;51.460;8.842;2023-12-07T06:11:15;98849.09;;;2.61;85.36
80542;BME280;69870;51.460;8.842;2023-12-07T06:13:42;98841.03;;;2.61;84.39
80542;BME280;69870;51.460;8.842;2023-12-07T06:16:11;98841.34;;;2.59;85.01
80542;BME280;69870;51.460;8.842;2023-12-07T06:18:38;98842.91;;;2.60;84.83
80542;BME280;69870;51.460;8.842;2023-12-07T06:21:05;98844.53;;;2.61;85.29
80542;BME280;69870;51.460;8.842;2023-12-07T06:23:31;98844.81;;;2.60;84.91
80542;BME280;69870;51.460;8.842;2023-12-07T06:25:59;98842.91;;;2.60;84.62
80542;BME280;69870;51.460;8.842;2023-12-07T06:28:28;98846.69;;;2.59;84.62
80542;BME280;69870;51.460;8.842;2023-12-07T06:30:57;98835.16;;;2.59;84.98
80542;BME280;69870;51.460;8.842;2023-12-07T06:33:24;98837.53;;;2.60;85.50
80542;BME280;69870;51.460;8.842;2023-12-07T06:35:50;98836.78;;;2.60;85.47
80542;BME280;69870;51.460;8.842;2023-12-07T06:38:17;98842.13;;;2.60;84.69
80542;BME280;69870;51.460;8.842;2023-12-07T06:40:45;98848.59;;;2.59;84.69
80542;BME280;69870;51.460;8.842;2023-12-07T06:43:12;98841.41;;;2.54;84.49
80542;BME280;69870;51.460;8.842;2023-12-07T06:45:40;98846.75;;;2.54;84.86
80542;BME280;69870;51.460;8.842;2023-12-07T06:48:07;98844.06;;;2.54;84.94
80542;BME280;69870;51.460;8.842;2023-12-07T06:50:34;98852.13;;;2.54;85.37
80542;BME280;69870;51.460;8.842;2023-12-07T06:53:01;98860.19;;;2.54;85.06
80542;BME280;69870;51.460;8.842;2023-12-07T06:55:28;98864.75;;;2.54;84.84
80542;BME280;69870;51.460;8.842;2023-12-07T06:57:54;98863.97;;;2.53;85.34
80542;BME280;69870;51.460;8.842;2023-12-07T07:00:21;98866.34;;;2.55;85.01
80542;BME280;69870;51.460;8.842;2023-12-07T07:02:51;98870.13;;;2.54;85.25
80542;BME280;69870;51.460;8.842;2023-12-07T07:05:17;98862.88;;;2.54;85.02
80542;BME280;69870;51.460;8.842;2023-12-07T07:07:45;98870.91;;;2.54;85.02
80542;BME280;69870;51.460;8.842;2023-12-07T07:10:12;98873.31;;;2.56;84.84
80542;BME280;69870;51.460;8.842;2023-12-07T07:12:39;98880.28;;;2.57;84.40
80542;BME280;69870;51.460;8.842;2023-12-07T07:15:07;98877.91;;;2.55;84.77
80542;BME280;69870;51.460;8.842;2023-12-07T07:17:34;98884.84;;;2.56;85.12
80542;BME280;69870;51.460;8.842;2023-12-07T07:20:02;98884.84;;;2.56;84.54
80542;BME280;69870;51.460;8.842;2023-12-07T07:22:29;98883.53;;;2.54;84.49
80542;BME280;69870;51.460;8.842;2023-12-07T07:24:55;98885.16;;;2.55;85.03
80542;BME280;69870;51.460;8.842;2023-12-07T07:27:22;98883.53;;;2.54;85.47
80542;BME280;69870;51.460;8.842;2023-12-07T07:29:49;98873.09;;;2.52;84.34
80542;BME280;69870;51.460;8.842;2023-12-07T07:32:15;98876.06;;;2.51;84.91
80542;BME280;69870;51.460;8.842;2023-12-07T07:34:42;98872.88;;;2.49;84.90
80542;BME280;69870;51.460;8.842;2023-12-07T07:37:10;98882.00;;;2.48;84.30
80542;BME280;69870;51.460;8.842;2023-12-07T07:39:37;98884.69;;;2.48;85.13
80542;BME280;69870;51.460;8.842;2023-12-07T07:42:04;98893.25;;;2.50;84.27
80542;BME280;69870;51.460;8.842;2023-12-07T07:44:31;98894.06;;;2.50;84.66
80542;BME280;69870;51.460;8.842;2023-12-07T07:46:58;98895.63;;;2.51;85.35
80542;BME280;69870;51.460;8.842;2023-12-07T07:49:24;98890.81;;;2.53;85.24
80542;BME280;69870;51.460;8.842;2023-12-07T07:51:51;98886.22;;;2.54;84.89
80542;BME280;69870;51.460;8.842;2023-12-07T07:54:19;98888.63;;;2.55;85.24
80542;BME280;69870;51.460;8.842;2023-12-07T07:56:46;98889.41;;;2.56;84.86
80542;BME280;69870;51.460;8.842;2023-12-07T07:59:12;98890.50;;;2.55;84.75
80542;BME280;69870;51.460;8.842;2023-12-07T08:01:39;98881.09;;;2.57;85.18
80542;BME280;69870;51.460;8.842;2023-12-07T08:04:06;98879.22;;;2.58;84.73
80542;BME280;69870;51.460;8.842;2023-12-07T08:06:32;98880.78;;;2.59;85.19
80542;BME280;69870;51.460;8.842;2023-12-07T08:08:59;98891.75;;;2.62;84.86
80542;BME280;69870;51.460;8.842;2023-12-07T08:11:27;98888.78;;;2.64;84.77
80542;BME280;69870;51.460;8.842;2023-12-07T08:13:54;98891.69;;;2.67;85.20
80542;BME280;69870;51.460;8.842;2023-12-07T08:16:21;98894.88;;;2.69;84.10
80542;BME280;69870;51.460;8.842;2023-12-07T08:18:48;98891.94;;;2.71;85.06
80542;BME280;69870;51.460;8.842;2023-12-07T08:21:19;98886.75;;;2.74;84.08
80542;BME280;69870;51.460;8.842;2023-12-07T08:23:46;98890.75;;;2.77;84.11
80542;BME280;69870;51.460;8.842;2023-12-07T08:26:13;98887.22;;;2.81;84.65
80542;BME280;69870;51.460;8.842;2023-12-07T08:28:42;98888.22;;;2.85;84.16
80542;BME280;69870;51.460;8.842;2023-12-07T08:31:09;98889.25;;;2.89;84.20
80542;BME280;69870;51.460;8.842;2023-12-07T08:33:36;98895.63;;;2.93;84.52
80542;BME280;69870;51.460;8.842;2023-12-07T08:36:05;98885.13;;;2.97;84.21
80542;BME280;69870;51.460;8.842;2023-12-07T08:38:32;98886.13;;;3.01;84.69
80542;BME280;69870;51.460;8.842;2023-12-07T08:40:58;98885.84;;;3.03;83.60
80542;BME280;69870;51.460;8.842;2023-12-07T08:43:25;98875.59;;;3.05;83.39
80542;BME280;69870;51.460;8.842;2023-12-07T08:45:55;98878.50;;;3.08;84.29
80542;BME280;69870;51.460;8.842;2023-12-07T08:48:22;98877.13;;;3.11;83.99
80542;BME280;69870;51.460;8.842;2023-12-07T08:50:48;98884.59;;;3.14;84.04
80542;BME280;69870;51.460;8.842;2023-12-07T08:53:16;98879.66;;;3.21;83.57
80542;BME280;69870;51.460;8.842;2023-12-07T08:55:43;98876.59;;;3.27;83.58
80542;BME280;69870;51.460;8.842;2023-12-07T08:58:09;98876.22;;;3.34;83.89
80542;BME280;69870;51.460;8.842;2023-12-07T09:00:37;98875.06;;;3.40;83.04
80542;BME280;69870;51.460;8.842;2023-12-07T09:03:05;98874.69;;;3.46;82.72
80542;BME280;69870;51.460;8.842;2023-12-07T09:05:31;98868.56;;;3.59;82.85
80542;BME280;69870;51.460;8.842;2023-12-07T09:07:58;98880.84;;;3.79;82.44
80542;BME280;69870;51.460;8.842;2023-12-07T09:10:25;98874.00;;;4.00;81.94
80542;BME280;69870;51.460;8.842;2023-12-07T09:12:51;98882.91;;;4.14;81.54
80542;BME280;69870;51.460;8.842;2023-12-07T09:15:18;98876.31;;;4.20;81.39
80542;BME280;69870;51.460;8.842;2023-12-07T09:17:45;98864.66;;;4.66;80.27
80542;BME280;69870;51.460;8.842;2023-12-07T09:20:12;98854.09;;;5.49;78.59
80542;BME280;69870;51.460;8.842;2023-12-07T09:22:40;98868.69;;;6.97;74.18
80542;BME280;69870;51.460;8.842;2023-12-07T09:25:07;98874.44;;;7.21;72.20
80542;BME280;69870;51.460;8.842;2023-12-07T09:27:35;98878.00;;;6.65;72.58
80542;BME280;69870;51.460;8.842;2023-12-07T09:30:04;98865.31;;;6.18;75.04
80542;BME280;69870;51.460;8.842;2023-12-07T09:32:32;98865.50;;;5.90;75.32
80542;BME280;69870;51.460;8.842;2023-12-07T09:35:04;98871.00;;;5.63;76.63
80542;BME280;69870;51.460;8.842;2023-12-07T09:37:32;98879.72;;;5.38;77.03
80542;BME280;69870;51.460;8.842;2023-12-07T09:39:58;98878.59;;;5.17;77.40
80542;BME280;69870;51.460;8.842;2023-12-07T09:42:25;98879.44;;;5.04;77.74
80542;BME280;69870;51.460;8.842;2023-12-07T09:44:53;98886.66;;;4.95;78.37
80542;BME280;69870;51.460;8.842;2023-12-07T09:47:20;98887.66;;;4.85;77.81
80542;BME280;69870;51.460;8.842;2023-12-07T09:49:47;98882.28;;;4.72;78.26
80542;BME280;69870;51.460;8.842;2023-12-07T09:52:15;98882.50;;;4.62;78.37
80542;BME280;69870;51.460;8.842;2023-12-07T09:54:43;98885.63;;;4.55;78.84
80542;BME280;69870;51.460;8.842;2023-12-07T09:57:10;98892.19;;;4.49;79.18
80542;BME280;69870;51.460;8.842;2023-12-07T09:59:37;98891.41;;;4.49;79.25
80542;BME280;69870;51.460;8.842;2023-12-07T10:02:04;98892.31;;;4.44;79.38
80542;BME280;69870;51.460;8.842;2023-12-07T10:04:30;98889.88;;;4.42;78.86
80542;BME280;69870;51.460;8.842;2023-12-07T10:06:57;98887.31;;;4.37;79.43
80542;BME280;69870;51.460;8.842;2023-12-07T10:09:24;98890.69;;;4.29;79.02
80542;BME280;69870;51.460;8.842;2023-12-07T10:12:01;98881.31;;;4.27;78.72
80542;BME280;69870;51.460;8.842;2023-12-07T10:14:28;98877.34;;;4.24;78.73
80542;BME280;69870;51.460;8.842;2023-12-07T10:16:55;98879.22;;;4.24;79.03
80542;BME280;69870;51.460;8.842;2023-12-07T10:19:23;98868.75;;;4.22;78.35
80542;BME280;69870;51.460;8.842;2023-12-07T10:21:51;98873.34;;;4.22;78.47
80542;BME280;69870;51.460;8.842;2023-12-07T10:24:18;98870.84;;;4.25;78.36
80542;BME280;69870;51.460;8.842;2023-12-07T10:26:46;98870.75;;;4.30;78.19
80542;BME280;69870;51.460;8.842;2023-12-07T10:29:14;98857.97;;;4.50;77.49
80542;BME280;69870;51.460;8.842;2023-12-07T10:31:43;98859.91;;;4.85;76.52
80542;BME280;69870;51.460;8.842;2023-12-07T10:34:12;98855.56;;;5.11;76.04
80542;BME280;69870;51.460;8.842;2023-12-07T10:36:39;98849.19;;;5.29;75.27
80542;BME280;69870;51.460;8.842;2023-12-07T10:39:05;98838.06;;;5.44;74.65
80542;BME280;69870;51.460;8.842;2023-12-07T10:41:34;98837.41;;;5.47;74.47
80542;BME280;69870;51.460;8.842;2023-12-07T10:44:06;98836.56;;;5.38;73.94
80542;BME280;69870;51.460;8.842;2023-12-07T10:46:35;98831.06;;;5.21;74.43
80542;BME280;69870;51.460;8.842;2023-12-07T10:49:04;98829.72;;;5.10;75.02
80542;BME280;69870;51.460;8.842;2023-12-07T10:51:37;98821.94;;;5.31;74.57
80542;BME280;69870;51.460;8.842;2023-12-07T10:54:06;98824.69;;;6.31;71.96
80542;BME280;69870;51.460;8.842;2023-12-07T10:56:38;98830.38;;;6.78;70.01
80542;BME280;69870;51.460;8.842;2023-12-07T10:59:07;98819.53;;;7.20;68.70
80542;BME280;69870;51.460;8.842;2023-12-07T11:01:38;98818.59;;;7.42;68.85
80542;BME280;69870;51.460;8.842;2023-12-07T11:04:06;98803.91;;;7.69;67.56
80542;BME280;69870;51.460;8.842;2023-12-07T11:06:34;98807.53;;;7.73;67.85
80542;BME280;69870;51.460;8.842;2023-12-07T11:09:04;98800.16;;;7.90;67.27
80542;BME280;69870;51.460;8.842;2023-12-07T11:11:36;98795.53;;;7.91;67.49
80542;BME280;69870;51.460;8.842;2023-12-07T11:14:06;98793.31;;;8.31;66.10
80542;BME280;69870;51.460;8.842;2023-12-07T11:16:36;98788.53;;;8.98;64.22
80542;BME280;69870;51.460;8.842;2023-12-07T11:19:04;98793.00;;;9.80;61.61
80542;BME280;69870;51.460;8.842;2023-12-07T11:21:31;98794.84;;;9.88;60.25
80542;BME280;69870;51.460;8.842;2023-12-07T11:23:59;98789.00;;;10.47;58.40
80542;BME280;69870;51.460;8.842;2023-12-07T11:26:26;98779.16;;;11.06;57.86
80542;BME280;69870;51.460;8.842;2023-12-07T11:28:54;98768.44;;;11.41;56.50
80542;BME280;69870;51.460;8.842;2023-12-07T11:31:21;98770.03;;;11.69;56.26
80542;BME280;69870;51.460;8.842;2023-12-07T11:33:48;98774.06;;;11.32;56.87
80542;BME280;69870;51.460;8.842;2023-12-07T11:36:16;98774.66;;;10.86;57.34
80542;BME280;69870;51.460;8.842;2023-12-07T11:39:16;98777.13;;;10.39;58.61
80542;BME280;69870;51.460;8.842;2023-12-07T11:41:44;98764.38;;;9.71;59.87
80542;BME280;69870;51.460;8.842;2023-12-07T11:44:11;98764.66;;;9.12;61.43
80542;BME280;69870;51.460;8.842;2023-12-07T11:46:38;98761.44;;;8.57;62.71
80542;BME280;69870;51.460;8.842;2023-12-07T11:49:04;98754.44;;;8.18;64.58
80542;BME280;69870;51.460;8.842;2023-12-07T11:51:37;98760.84;;;7.84;65.54
80542;BME280;69870;51.460;8.842;2023-12-07T11:54:04;98759.59;;;7.82;65.36
80542;BME280;69870;51.460;8.842;2023-12-07T11:56:30;98739.38;;;8.08;64.43
80542;BME280;69870;51.460;8.842;2023-12-07T11:58:58;98749.94;;;8.01;63.84
80542;BME280;69870;51.460;8.842;2023-12-07T12:01:25;98745.97;;;7.99;64.72
80542;BME280;69870;51.460;8.842;2023-12-07T12:03:53;98745.16;;;7.98;64.60
80542;BME280;69870;51.460;8.842;2023-12-07T12:06:20;98740.47;;;8.66;63.02
80542;BME280;69870;51.460;8.842;2023-12-07T12:08:48;98740.66;;;9.35;60.04
80542;BME280;69870;51.460;8.842;2023-12-07T12:11:15;98736.31;;;10.03;58.75
80542;BME280;69870;51.460;8.842;2023-12-07T12:13:41;98725.09;;;10.53;56.84
80542;BME280;69870;51.460;8.842;2023-12-07T12:16:08;98725.59;;;10.18;56.88
80542;BME280;69870;51.460;8.842;2023-12-07T12:18:36;98726.91;;;9.19;59.39
80542;BME280;69870;51.460;8.842;2023-12-07T12:21:03;98736.09;;;8.32;61.38
80542;BME280;69870;51.460;8.842;2023-12-07T12:23:31;98732.44;;;7.53;62.92
80542;BME280;69870;51.460;8.842;2023-12-07T12:25:59;98723.53;;;6.89;64.08
80542;BME280;69870;51.460;8.842;2023-12-07T12:28:26;98726.22;;;6.46;65.81
80542;BME280;69870;51.460;8.842;2023-12-07T12:30:54;98727.28;;;6.11;66.04
80542;BME280;69870;51.460;8.842;2023-12-07T12:33:21;98717.53;;;5.84;67.18
80542;BME280;69870;51.460;8.842;2023-12-07T12:36:01;98720.56;;;5.60;66.99
80542;BME280;69870;51.460;8.842;2023-12-07T12:38:28;98724.47;;;5.46;67.72
80542;BME280;69870;51.460;8.842;2023-12-07T12:40:55;98720.13;;;5.36;68.00
80542;BME280;69870;51.460;8.842;2023-12-07T12:43:23;98718.31;;;5.23;68.55
80542;BME280;69870;51.460;8.842;2023-12-07T12:45:50;98722.88;;;5.14;68.97
80542;BME280;69870;51.460;8.842;2023-12-07T12:48:17;98718.22;;;5.06;68.58
80542;BME280;69870;51.460;8.842;2023-12-07T12:50:44;98718.78;;;4.94;69.04
80542;BME280;69870;51.460;8.842;2023-12-07T12:53:11;98726.22;;;4.89;69.11
80542;BME280;69870;51.460;8.842;2023-12-07T12:55:40;98717.13;;;4.85;69.49
80542;BME280;69870;51.460;8.842;2023-12-07T12:58:09;98724.81;;;4.78;69.86
80542;BME280;69870;51.460;8.842;2023-12-07T13:00:39;98724.97;;;4.73;69.68
80542;BME280;69870;51.460;8.842;2023-12-07T13:03:06;98722.38;;;4.68;69.76
80542;BME280;69870;51.460;8.842;2023-12-07T13:05:33;98721.66;;;4.76;70.36
80542;BME280;69870;51.460;8.842;2023-12-07T13:08:00;98723.63;;;4.84;69.77
80542;BME280;69870;51.460;8.842;2023-12-07T13:10:26;98717.31;;;4.66;69.88